METAR Data
IDs: Format: Raw Decoded Include TAF

Data at: 0817 UTC 01 Aug 2021

LIPZ 010750Z 21003KT 140V280 9999 SCT057 26/21 Q1004 NOSIG